createdAt,value
2023-03-31T00:00:14.302Z,16.75
2023-03-31T00:02:44.706Z,15.95
2023-03-31T00:05:20.334Z,16.43
2023-03-31T00:07:51.022Z,16.05
2023-03-31T00:10:21.763Z,17.08
2023-03-31T00:12:53.095Z,14.32
2023-03-31T00:17:54.130Z,13.55
2023-03-31T00:20:25.181Z,14.20
2023-03-31T00:22:57.004Z,15.30
2023-03-31T00:25:27.390Z,14.68
2023-03-31T00:27:57.721Z,14.53
2023-03-31T00:30:28.054Z,14.57
2023-03-31T00:32:59.330Z,14.88
2023-03-31T00:35:29.650Z,13.38
2023-03-31T00:38:00.414Z,16.52
2023-03-31T00:40:30.577Z,12.48
2023-03-31T00:43:00.881Z,13.07
2023-03-31T00:45:33.350Z,13.38
2023-03-31T00:48:12.830Z,16.92
2023-03-31T00:50:56.841Z,18.95
2023-03-31T00:53:31.724Z,14.18
2023-03-31T00:56:10.513Z,13.48
2023-03-31T00:58:46.110Z,14.93
2023-03-31T01:01:38.323Z,16.05
2023-03-31T01:04:40.681Z,14.60
2023-03-31T01:07:29.006Z,13.98
2023-03-31T01:10:03.284Z,13.77
2023-03-31T01:12:36.006Z,14.55
2023-03-31T01:15:07.021Z,14.43
2023-03-31T01:17:38.813Z,16.17
2023-03-31T01:20:33.701Z,14.45
2023-03-31T01:23:25.108Z,14.82
2023-03-31T01:26:41.046Z,13.98
2023-03-31T01:29:45.260Z,13.07
2023-03-31T01:32:36.681Z,15.90
2023-03-31T01:35:35.642Z,15.90
2023-03-31T01:38:19.516Z,15.27
2023-03-31T01:40:52.982Z,17.63
2023-03-31T01:43:39.630Z,13.50
2023-03-31T01:46:12.987Z,14.30
2023-03-31T01:49:10.624Z,14.77
2023-03-31T01:51:48.135Z,14.27
2023-03-31T01:54:46.569Z,13.18
2023-03-31T01:57:35.379Z,14.77
2023-03-31T02:00:08.165Z,13.90
2023-03-31T02:03:00.740Z,14.75
2023-03-31T02:05:39.114Z,13.95
2023-03-31T02:08:26.044Z,14.32
2023-03-31T02:10:57.736Z,14.82
2023-03-31T02:13:30.180Z,14.38
2023-03-31T02:16:08.301Z,15.00
2023-03-31T02:18:44.092Z,13.77
2023-03-31T02:21:17.209Z,14.23
2023-03-31T02:23:48.462Z,14.18
2023-03-31T02:26:25.590Z,14.10
2023-03-31T02:29:14.038Z,15.45
2023-03-31T02:31:50.096Z,15.90
2023-03-31T02:34:39.054Z,14.27
2023-03-31T02:37:09.667Z,14.97
2023-03-31T02:40:01.726Z,15.52
2023-03-31T02:42:32.037Z,15.77
2023-03-31T02:45:07.313Z,16.83
2023-03-31T02:47:37.849Z,15.57
2023-03-31T02:50:08.958Z,15.30
2023-03-31T02:53:26.501Z,16.50
2023-03-31T02:56:13.990Z,15.68
2023-03-31T02:58:50.445Z,15.90
2023-03-31T03:01:42.625Z,15.95
2023-03-31T03:05:14.505Z,17.25
2023-03-31T03:08:04.530Z,17.25
2023-03-31T03:10:53.304Z,17.73
2023-03-31T03:13:26.610Z,17.88
2023-03-31T03:16:29.730Z,18.27
2023-03-31T03:19:04.968Z,18.38
2023-03-31T03:21:35.921Z,19.25
2023-03-31T03:24:06.257Z,18.92
2023-03-31T03:26:37.549Z,18.88
2023-03-31T03:31:37.633Z,18.52
2023-03-31T03:34:09.374Z,19.80
2023-03-31T03:36:41.349Z,21.50
2023-03-31T03:39:11.689Z,20.67
2023-03-31T03:42:00.526Z,20.15
2023-03-31T03:44:30.885Z,20.92
2023-03-31T03:47:01.168Z,20.73
2023-03-31T03:49:31.521Z,22.00
2023-03-31T03:52:20.001Z,22.25
2023-03-31T03:54:50.227Z,22.47
2023-03-31T03:57:38.975Z,20.95
2023-03-31T04:00:19.580Z,21.77
2023-03-31T04:02:49.796Z,22.10
2023-03-31T04:05:20.301Z,21.00
2023-03-31T04:07:50.955Z,24.00
2023-03-31T04:10:21.472Z,22.05
2023-03-31T04:12:51.665Z,23.73
2023-03-31T04:15:21.885Z,24.40
2023-03-31T04:17:53.360Z,23.02
2023-03-31T04:20:24.372Z,25.08
2023-03-31T04:22:54.782Z,22.70
2023-03-31T04:25:25.714Z,24.80
2023-03-31T04:28:17.066Z,24.58
2023-03-31T04:30:47.888Z,23.67
2023-03-31T04:33:19.751Z,23.88
2023-03-31T04:35:54.864Z,24.23
2023-03-31T04:38:29.518Z,23.77
2023-03-31T04:41:00.386Z,23.67
2023-03-31T04:43:30.650Z,23.73
2023-03-31T04:46:02.803Z,24.90
2023-03-31T04:48:33.235Z,24.83
2023-03-31T04:53:49.665Z,24.67
2023-03-31T04:56:20.364Z,24.52
2023-03-31T04:58:50.450Z,23.83
2023-03-31T05:01:23.466Z,24.70
2023-03-31T05:03:53.934Z,24.45
2023-03-31T05:06:24.025Z,23.77
2023-03-31T05:08:54.752Z,25.02
2023-03-31T05:11:25.428Z,24.15
2023-03-31T05:16:40.881Z,24.90
2023-03-31T05:19:10.996Z,24.20
2023-03-31T05:21:41.257Z,24.80
2023-03-31T05:24:11.776Z,24.50
2023-03-31T05:26:43.481Z,24.00
2023-03-31T05:31:58.964Z,25.42
2023-03-31T05:34:47.465Z,24.75
2023-03-31T05:37:17.920Z,23.88
2023-03-31T05:39:48.036Z,24.25
2023-03-31T05:42:18.486Z,24.67
2023-03-31T05:44:49.438Z,25.47
2023-03-31T05:47:20.597Z,24.58
2023-03-31T05:49:50.896Z,21.83
2023-03-31T05:52:21.578Z,26.55
2023-03-31T05:54:51.848Z,25.55
2023-03-31T05:57:22.088Z,26.95
2023-03-31T05:59:52.515Z,27.13
2023-03-31T06:02:22.805Z,25.38
2023-03-31T06:05:11.498Z,25.23
2023-03-31T06:07:41.801Z,24.27
2023-03-31T06:10:13.113Z,24.38
2023-03-31T06:13:01.836Z,25.85
2023-03-31T06:15:33.130Z,24.45
2023-03-31T06:18:03.428Z,24.23
2023-03-31T06:20:33.729Z,25.05
2023-03-31T06:23:04.049Z,23.13
2023-03-31T06:25:47.831Z,23.50
2023-03-31T06:28:21.590Z,24.13
2023-03-31T06:30:51.977Z,24.33
2023-03-31T06:33:22.313Z,24.33
2023-03-31T06:35:52.517Z,23.52
2023-03-31T06:38:22.793Z,23.20
2023-03-31T06:40:53.347Z,24.02
2023-03-31T06:43:23.669Z,22.42
2023-03-31T06:45:57.977Z,22.52
2023-03-31T06:48:29.142Z,23.60
2023-03-31T06:53:32.776Z,22.70
2023-03-31T06:56:03.690Z,22.35
2023-03-31T06:58:34.322Z,23.48
2023-03-31T07:01:08.928Z,21.83
2023-03-31T07:03:39.699Z,22.77
2023-03-31T07:06:10.120Z,20.83
2023-03-31T07:08:58.459Z,22.13
2023-03-31T07:11:28.800Z,21.98
2023-03-31T07:13:58.878Z,21.42
2023-03-31T07:16:47.177Z,21.95
2023-03-31T07:19:17.949Z,22.07
2023-03-31T07:21:48.725Z,23.00
2023-03-31T07:24:37.178Z,21.42
2023-03-31T07:27:26.329Z,22.45
2023-03-31T07:30:19.003Z,20.42
2023-03-31T07:32:50.720Z,21.25
2023-03-31T07:35:22.019Z,21.92
2023-03-31T07:37:53.884Z,22.17
2023-03-31T07:40:31.862Z,21.38
2023-03-31T07:43:02.141Z,22.08
2023-03-31T07:45:32.843Z,22.58
2023-03-31T07:50:48.332Z,21.02
2023-03-31T07:53:25.614Z,21.45
2023-03-31T07:55:55.883Z,21.70
2023-03-31T07:58:26.200Z,20.40
2023-03-31T08:00:56.534Z,22.50
2023-03-31T08:03:28.093Z,20.77
2023-03-31T08:05:58.329Z,21.98
2023-03-31T08:08:29.014Z,22.43
2023-03-31T08:10:59.336Z,22.00
2023-03-31T08:13:29.677Z,21.48
2023-03-31T08:15:59.930Z,21.52
2023-03-31T08:18:30.373Z,22.13
2023-03-31T08:23:45.879Z,21.50
2023-03-31T08:26:21.565Z,22.73
2023-03-31T08:28:51.739Z,22.80
2023-03-31T08:31:25.324Z,21.55
2023-03-31T08:33:58.743Z,22.60
2023-03-31T08:36:29.589Z,21.30
2023-03-31T08:42:12.197Z,21.77
2023-03-31T08:45:13.782Z,22.55
2023-03-31T08:48:28.036Z,21.63
2023-03-31T08:51:19.026Z,21.75
2023-03-31T08:54:02.343Z,21.83
2023-03-31T08:56:41.560Z,21.40
2023-03-31T08:59:23.340Z,22.08
2023-03-31T09:01:58.676Z,22.27
2023-03-31T09:04:40.840Z,22.00
2023-03-31T09:07:37.258Z,22.30
2023-03-31T09:10:22.512Z,23.33
2023-03-31T09:13:00.729Z,21.42
2023-03-31T09:15:48.025Z,23.27
2023-03-31T09:18:25.286Z,22.50
2023-03-31T09:21:00.923Z,21.73
2023-03-31T09:23:49.595Z,21.33
2023-03-31T09:26:29.866Z,22.38
2023-03-31T09:29:02.110Z,22.52
2023-03-31T09:31:32.661Z,23.08
2023-03-31T09:34:31.334Z,21.80
2023-03-31T09:37:01.880Z,22.15
2023-03-31T09:39:50.135Z,22.08
2023-03-31T09:42:21.793Z,21.40
2023-03-31T09:44:52.711Z,22.10
2023-03-31T09:47:29.437Z,23.02
2023-03-31T09:49:59.832Z,21.83
2023-03-31T09:52:35.452Z,21.92
2023-03-31T09:55:10.949Z,23.50
2023-03-31T09:57:42.768Z,22.83
2023-03-31T10:00:18.828Z,22.42
2023-03-31T10:02:58.830Z,21.88
2023-03-31T10:05:29.074Z,23.35
2023-03-31T10:08:19.858Z,23.75
2023-03-31T10:10:52.451Z,22.83
2023-03-31T10:13:28.994Z,22.60
2023-03-31T10:19:28.357Z,22.92
2023-03-31T10:22:08.360Z,22.92
2023-03-31T10:24:46.769Z,24.00
2023-03-31T10:27:26.399Z,23.02
2023-03-31T10:30:02.360Z,23.83
2023-03-31T10:32:43.439Z,23.40
2023-03-31T10:35:37.049Z,23.63
2023-03-31T10:41:03.758Z,22.80
2023-03-31T10:43:44.523Z,23.38
2023-03-31T10:46:15.218Z,22.60
2023-03-31T10:48:46.781Z,23.67
2023-03-31T10:51:28.729Z,21.83
2023-03-31T10:54:16.929Z,22.58
2023-03-31T10:57:08.722Z,22.48
2023-03-31T11:00:08.163Z,22.08
2023-03-31T11:03:11.996Z,23.58
2023-03-31T11:05:54.235Z,21.40
2023-03-31T11:08:27.381Z,21.67
2023-03-31T11:11:07.213Z,22.17
2023-03-31T11:14:21.220Z,21.50
2023-03-31T11:17:06.778Z,21.63
2023-03-31T11:20:09.206Z,20.83
2023-03-31T11:23:01.857Z,20.70
2023-03-31T11:25:39.718Z,21.02
2023-03-31T11:28:23.025Z,20.92
2023-03-31T11:31:20.125Z,19.95
2023-03-31T11:33:56.147Z,19.98
2023-03-31T11:36:39.145Z,21.75
2023-03-31T11:42:52.655Z,19.85
2023-03-31T11:45:30.529Z,19.35
2023-03-31T11:48:07.522Z,18.67
2023-03-31T11:50:43.432Z,18.80
2023-03-31T11:53:40.366Z,19.25
2023-03-31T13:44:08.797Z,19.60
2023-03-31T13:47:13.763Z,18.95
2023-03-31T13:50:03.502Z,18.77
2023-03-31T13:52:52.716Z,23.20
2023-03-31T13:55:28.705Z,24.25
2023-03-31T13:58:24.978Z,19.92
2023-03-31T14:01:25.152Z,21.60
2023-03-31T14:04:03.886Z,22.30
2023-03-31T14:06:40.098Z,19.67
2023-03-31T14:09:35.732Z,18.92
2023-03-31T14:12:24.368Z,22.23
2023-03-31T14:14:57.904Z,26.40
2023-03-31T14:17:36.294Z,30.25
2023-03-31T14:20:48.132Z,26.38
2023-03-31T14:24:06.030Z,22.60
2023-03-31T14:26:54.007Z,20.92
2023-03-31T14:29:36.136Z,26.45
2023-03-31T14:32:34.920Z,21.60
2023-03-31T14:35:29.410Z,24.08
2023-03-31T14:38:00.271Z,22.08
2023-03-31T14:40:30.657Z,22.33
2023-03-31T14:43:01.787Z,21.83
2023-03-31T14:45:34.196Z,22.52
2023-03-31T14:48:16.315Z,22.52
2023-03-31T14:50:49.397Z,21.08
2023-03-31T14:53:22.409Z,21.13
2023-03-31T14:55:58.557Z,20.48
2023-03-31T14:58:35.728Z,21.15
2023-03-31T15:01:09.473Z,23.98
2023-03-31T15:03:46.499Z,22.70
2023-03-31T15:06:18.357Z,25.60
2023-03-31T15:08:48.766Z,24.40
2023-03-31T15:11:23.180Z,22.73
2023-03-31T15:14:04.958Z,25.83
2023-03-31T15:16:47.310Z,25.10
2023-03-31T15:19:30.498Z,22.70
2023-03-31T15:22:11.484Z,26.35
2023-03-31T15:24:42.125Z,24.92
2023-03-31T15:27:38.523Z,28.70
2023-03-31T15:30:19.631Z,27.52
2023-03-31T15:32:50.064Z,28.27
2023-03-31T15:35:32.373Z,28.43
2023-03-31T15:38:05.299Z,28.95
2023-03-31T15:40:42.540Z,26.70
2023-03-31T15:43:34.408Z,28.20
2023-03-31T15:46:05.329Z,25.20
2023-03-31T15:48:38.081Z,22.55
2023-03-31T15:51:10.452Z,29.90
2023-03-31T15:53:53.338Z,28.92
2023-03-31T15:56:46.052Z,21.50
2023-03-31T15:59:34.260Z,26.33
2023-03-31T16:02:12.138Z,25.38
2023-03-31T16:04:43.107Z,26.50
2023-03-31T16:07:22.719Z,28.48
2023-03-31T16:10:22.215Z,30.10
2023-03-31T16:13:00.515Z,23.05
2023-03-31T16:15:45.368Z,22.58
2023-03-31T16:18:21.011Z,19.70
2023-03-31T16:20:59.470Z,23.20
2023-03-31T16:23:36.463Z,24.83
2023-03-31T16:26:07.311Z,20.42
2023-03-31T16:28:39.689Z,19.35
2023-03-31T16:31:36.690Z,19.90
2023-03-31T16:34:09.723Z,18.83
2023-03-31T16:36:40.528Z,20.90
2023-03-31T16:39:11.465Z,19.02
2023-03-31T16:41:41.797Z,18.75
2023-03-31T16:44:12.011Z,22.30
2023-03-31T16:46:42.408Z,19.45
2023-03-31T16:49:12.966Z,18.35
2023-03-31T16:51:43.772Z,19.55
2023-03-31T16:54:14.259Z,19.48
2023-03-31T16:56:44.512Z,18.83
2023-03-31T16:59:14.738Z,20.20
2023-03-31T17:01:45.056Z,18.95
2023-03-31T17:04:16.043Z,20.42
2023-03-31T17:06:46.578Z,21.08
2023-03-31T17:09:16.844Z,18.87
2023-03-31T17:11:46.951Z,18.45
2023-03-31T17:14:17.327Z,18.58
2023-03-31T17:16:48.730Z,19.07
2023-03-31T17:19:20.243Z,19.65
2023-03-31T17:24:20.779Z,19.40
2023-03-31T17:26:50.869Z,20.08
2023-03-31T17:29:21.242Z,16.85
2023-03-31T17:31:51.504Z,18.52
2023-03-31T17:34:21.858Z,20.63
2023-03-31T17:36:53.873Z,19.65
2023-03-31T17:39:24.231Z,19.58
2023-03-31T17:41:54.594Z,19.10
2023-03-31T17:44:25.098Z,18.85
2023-03-31T17:46:55.507Z,18.42
2023-03-31T17:49:27.192Z,18.35
2023-03-31T17:51:57.698Z,18.40
2023-03-31T17:54:28.609Z,18.43
2023-03-31T17:56:58.895Z,18.13
2023-03-31T17:59:29.152Z,18.93
2023-03-31T18:02:17.900Z,21.08
2023-03-31T18:05:08.736Z,20.35
2023-03-31T18:07:40.403Z,19.23
2023-03-31T18:10:12.361Z,19.48
2023-03-31T18:12:43.602Z,20.33
2023-03-31T18:15:14.155Z,18.83
2023-03-31T18:17:45.688Z,21.58
2023-03-31T18:20:16.473Z,18.20
2023-03-31T18:22:46.758Z,20.20
2023-03-31T18:25:35.683Z,18.73
2023-03-31T18:28:06.237Z,20.33
2023-03-31T18:30:36.393Z,20.38
2023-03-31T18:33:06.887Z,18.08
2023-03-31T18:35:55.396Z,19.23
2023-03-31T18:38:25.614Z,20.87
2023-03-31T18:40:57.411Z,19.33
2023-03-31T18:43:30.110Z,19.50
2023-03-31T18:46:03.693Z,18.73
2023-03-31T18:48:34.411Z,19.48
2023-03-31T18:51:05.043Z,19.25
2023-03-31T18:53:53.576Z,19.60
2023-03-31T18:56:25.464Z,18.10
2023-03-31T18:58:56.296Z,19.50
2023-03-31T19:01:26.712Z,19.08
2023-03-31T19:03:57.942Z,19.77
2023-03-31T19:06:29.494Z,20.45
2023-03-31T19:09:00.049Z,20.48
2023-03-31T19:11:31.119Z,20.27
2023-03-31T19:14:01.485Z,17.17
2023-03-31T19:16:31.970Z,18.53
2023-03-31T19:19:02.041Z,21.73
2023-03-31T19:21:34.976Z,18.08
2023-03-31T19:24:05.189Z,18.95
2023-03-31T19:26:35.792Z,19.57
2023-03-31T19:29:07.684Z,18.80
2023-03-31T19:31:40.859Z,18.70
2023-03-31T19:34:13.926Z,17.25
2023-03-31T19:36:44.316Z,18.08
2023-03-31T19:39:14.629Z,18.10
2023-03-31T19:41:44.997Z,18.35
2023-03-31T19:44:15.455Z,17.48
2023-03-31T19:46:45.628Z,17.37
2023-03-31T19:49:15.948Z,18.35
2023-03-31T19:51:46.785Z,18.10
2023-03-31T19:54:16.873Z,17.77
2023-03-31T19:56:47.025Z,17.80
2023-03-31T19:59:17.307Z,21.00
2023-03-31T20:01:48.021Z,18.08
2023-03-31T20:04:20.353Z,18.53
2023-03-31T20:06:51.264Z,17.52
2023-03-31T20:09:21.353Z,21.90
2023-03-31T20:11:51.502Z,17.42
2023-03-31T20:14:21.929Z,17.10
2023-03-31T20:16:53.455Z,17.17
2023-03-31T20:19:25.603Z,17.40
2023-03-31T20:22:00.319Z,17.83
2023-03-31T20:24:30.678Z,15.98
2023-03-31T20:27:01.589Z,18.77
2023-03-31T20:29:32.548Z,17.30
2023-03-31T20:32:04.868Z,18.20
2023-03-31T20:34:36.850Z,17.83
2023-03-31T20:37:07.100Z,17.67
2023-03-31T20:39:37.451Z,19.13
2023-03-31T20:42:08.690Z,17.75
2023-03-31T20:44:39.434Z,16.05
2023-03-31T20:47:09.847Z,19.27
2023-03-31T20:49:40.292Z,17.50
2023-03-31T20:52:10.502Z,18.63
2023-03-31T20:54:41.012Z,18.15
2023-03-31T20:57:11.412Z,17.27
2023-03-31T20:59:42.194Z,16.90
2023-03-31T21:02:15.508Z,17.27
2023-03-31T21:04:45.803Z,18.10
2023-03-31T21:07:15.918Z,18.33
2023-03-31T21:09:46.267Z,18.40
2023-03-31T21:12:16.794Z,18.50
2023-03-31T21:14:47.776Z,18.63
2023-03-31T21:17:18.152Z,20.15
2023-03-31T21:19:48.221Z,18.77
2023-03-31T21:22:18.424Z,17.10
2023-03-31T21:24:48.760Z,18.30
2023-03-31T21:27:18.979Z,18.35
2023-03-31T21:29:49.148Z,18.05
2023-03-31T21:32:20.488Z,17.75
2023-03-31T21:34:50.702Z,18.02
2023-03-31T21:37:20.755Z,18.90
2023-03-31T21:39:51.063Z,17.42
2023-03-31T21:42:21.423Z,18.00
2023-03-31T21:44:51.691Z,18.83
2023-03-31T21:47:22.068Z,18.98
2023-03-31T21:49:52.114Z,19.30
2023-03-31T21:52:22.130Z,18.33
2023-03-31T21:54:52.243Z,18.88
2023-03-31T21:57:22.391Z,18.67
2023-03-31T21:59:52.727Z,19.67
2023-03-31T22:02:23.072Z,18.48
2023-03-31T22:04:53.330Z,19.85
2023-03-31T22:07:23.660Z,18.85
2023-03-31T22:09:53.874Z,19.00
2023-03-31T22:12:24.159Z,18.45
2023-03-31T22:14:54.530Z,18.13
2023-03-31T22:17:25.340Z,17.40
2023-03-31T22:19:55.560Z,16.98
2023-03-31T22:22:25.786Z,18.02
2023-03-31T22:24:56.034Z,17.08
2023-03-31T22:27:26.240Z,17.67
2023-03-31T22:29:56.331Z,17.77
2023-03-31T22:32:26.600Z,16.95
2023-03-31T22:34:56.909Z,19.73
2023-03-31T22:37:27.133Z,17.38
2023-03-31T22:39:57.389Z,20.17
2023-03-31T22:42:27.647Z,18.17
2023-03-31T22:44:57.890Z,20.60
2023-03-31T22:47:28.353Z,21.03
2023-03-31T22:49:58.632Z,19.27
2023-03-31T22:52:28.941Z,19.35
2023-03-31T22:54:59.695Z,18.73
2023-03-31T22:57:30.015Z,19.65
2023-03-31T23:00:00.165Z,19.77
2023-03-31T23:02:31.402Z,21.02
2023-03-31T23:05:02.091Z,21.80
2023-03-31T23:07:32.799Z,21.87
2023-03-31T23:10:03.156Z,23.13
2023-03-31T23:12:33.956Z,25.25
2023-03-31T23:15:04.335Z,27.63
2023-03-31T23:17:34.630Z,20.20
2023-03-31T23:20:04.967Z,23.35
2023-03-31T23:22:37.278Z,20.80
2023-03-31T23:25:09.219Z,21.73
2023-03-31T23:27:39.823Z,22.13
2023-03-31T23:30:10.783Z,21.50
2023-03-31T23:32:41.052Z,22.73
2023-03-31T23:35:11.566Z,20.17
2023-03-31T23:37:41.894Z,19.97
2023-03-31T23:40:12.418Z,21.58
2023-03-31T23:42:43.141Z,20.52
2023-03-31T23:45:13.772Z,21.42
2023-03-31T23:47:44.820Z,20.23
2023-03-31T23:50:15.045Z,27.90
2023-03-31T23:52:45.289Z,24.85
2023-03-31T23:55:16.293Z,22.70
2023-03-31T23:57:46.459Z,31.33
